Time;durP1;ratioP1;P1;durP2;ratioP2;P2;SDS_P1;SDS_P2;PMS_P1;PMS_P2;Temp;Humidity;BMP_temperature;BMP_pressure;BME280_temperature;BME280_humidity;BME280_pressure;Samples;Min_cycle;Max_cycle;Signal;HPM_P1;HPM_P2
2024/01/17 00:01:51;;;;;;;3.67;1.05;;;;;;;17.28;81.56;98753.00;10372245;28;96671;-82
2024/01/17 00:06:55;;;;;;;4.82;1.13;;;;;;;17.25;80.86;98739.16;10371595;28;96691;-82
2024/01/17 00:12:03;;;;;;;11.30;2.63;;;;;;;17.27;80.34;98739.88;10371729;28;96853;-81
2024/01/17 00:17:08;;;;;;;5.43;0.98;;;;;;;17.26;79.26;98703.63;10371229;28;96655;-81
2024/01/17 00:22:11;;;;;;;3.60;1.10;;;;;;;17.35;77.57;98694.78;10370877;28;96727;-80
2024/01/17 00:27:16;;;;;;;6.82;1.45;;;;;;;17.25;78.38;98694.81;10371212;28;97237;-80
2024/01/17 00:32:21;;;;;;;5.32;1.30;;;;;;;17.27;77.84;98692.00;10371503;28;97387;-80
2024/01/17 00:37:25;;;;;;;5.00;1.67;;;;;;;17.30;77.21;98699.69;10371405;28;96792;-79
2024/01/17 00:42:29;;;;;;;6.43;1.33;;;;;;;17.25;77.51;98689.50;10370876;28;96644;-79
2024/01/17 00:47:34;;;;;;;6.27;1.80;;;;;;;17.26;76.96;98709.78;10370831;28;97496;-79
2024/01/17 00:52:37;;;;;;;6.85;1.50;;;;;;;17.22;76.58;98687.13;10370656;28;96633;-79
2024/01/17 00:57:41;;;;;;;7.30;1.27;;;;;;;17.20;76.82;98702.38;10370935;28;96814;-79
2024/01/17 01:02:46;;;;;;;6.03;1.60;;;;;;;17.17;76.92;98681.38;10370434;28;96782;-79
2024/01/17 01:07:51;;;;;;;6.05;1.90;;;;;;;17.13;76.65;98685.28;10370150;28;97063;-79
2024/01/17 01:12:54;;;;;;;6.57;1.27;;;;;;;17.05;76.80;98672.69;10340257;28;96675;-79
2024/01/17 01:17:59;;;;;;;5.65;1.23;;;;;;;17.04;76.08;98660.41;10373398;28;96669;-79
2024/01/17 01:23:03;;;;;;;4.70;1.40;;;;;;;16.99;76.37;98669.75;10377512;28;96621;-79
2024/01/17 01:28:06;;;;;;;4.43;1.35;;;;;;;16.96;76.86;98673.53;10376708;28;96746;-79
2024/01/17 01:33:11;;;;;;;8.20;1.30;;;;;;;16.95;76.47;98657.72;10376486;28;96674;-79
2024/01/17 01:38:15;;;;;;;5.10;1.20;;;;;;;16.94;76.77;98654.25;10376860;28;97086;-79
2024/01/17 01:43:19;;;;;;;7.43;1.20;;;;;;;16.87;77.35;98645.16;10376853;28;97046;-79
2024/01/17 01:48:24;;;;;;;6.87;1.20;;;;;;;16.87;77.33;98633.69;10376604;28;97221;-79
2024/01/17 01:53:30;;;;;;;5.43;1.65;;;;;;;16.87;77.24;98625.69;10376134;28;97047;-79
2024/01/17 01:58:36;;;;;;;6.88;1.60;;;;;;;16.81;77.38;98616.47;10375993;28;96947;-79
2024/01/17 02:03:43;;;;;;;5.43;1.30;;;;;;;16.82;77.78;98614.66;10374519;28;97177;-79
2024/01/17 02:08:47;;;;;;;6.22;1.02;;;;;;;16.83;77.31;98606.53;10375505;28;96529;-79
2024/01/17 02:13:50;;;;;;;4.88;1.23;;;;;;;16.76;77.72;98624.03;10375538;28;97390;-79
2024/01/17 02:18:55;;;;;;;6.78;1.50;;;;;;;16.69;77.98;98640.63;10307060;28;100956;-79
2024/01/17 02:29:34;;;;;;;7.20;1.40;;;;;;;16.74;78.08;98617.19;10498242;27;97446;-80
2024/01/17 02:34:38;;;;;;;8.85;1.55;;;;;;;16.65;78.82;98616.16;10496635;27;97242;-79
2024/01/17 02:39:41;;;;;;;7.72;1.27;;;;;;;16.59;79.03;98582.22;10484820;27;97178;-80
2024/01/17 02:44:46;;;;;;;6.35;1.63;;;;;;;16.63;78.67;98582.78;10454439;27;96783;-80
2024/01/17 02:49:50;;;;;;;8.82;1.52;;;;;;;16.26;82.09;98579.91;10459418;27;96706;-80
2024/01/17 02:54:53;;;;;;;6.53;1.55;;;;;;;16.11;83.18;98572.44;10496315;27;96872;-80
2024/01/17 02:59:58;;;;;;;4.10;1.30;;;;;;;15.96;85.11;98563.22;10456454;27;97019;-83
2024/01/17 03:05:01;;;;;;;;;;;;;;;15.97;84.76;98565.72;10477847;27;96817;-83
2024/01/17 03:10:07;;;;;;;5.38;1.30;;;;;;;16.07;83.11;98568.38;10520844;27;97351;-84
2024/01/17 03:15:13;;;;;;;3.78;0.80;;;;;;;16.06;83.25;98564.06;10488232;27;96583;-83
2024/01/17 03:20:17;;;;;;;6.50;1.50;;;;;;;15.97;84.66;98576.34;10453618;27;97130;-81
2024/01/17 03:25:21;;;;;;;4.18;0.93;;;;;;;15.90;85.42;98577.84;10452577;27;96780;-84
2024/01/17 03:30:25;;;;;;;5.65;1.20;;;;;;;15.88;85.42;98570.03;10453773;27;96778;-83
2024/01/17 03:35:28;;;;;;;;;;;;;;;15.81;86.78;98568.03;10453574;27;96922;-83
2024/01/17 03:40:32;;;;;;;5.07;1.02;;;;;;;15.76;85.97;98573.75;10426713;27;96870;-81
2024/01/17 03:45:37;;;;;;;5.20;0.82;;;;;;;15.61;87.15;98566.28;10424820;28;97120;-82
2024/01/17 03:50:40;;;;;;;;;;;;;;;15.62;86.83;98578.56;10426087;27;96998;-83
2024/01/17 03:55:43;;;;;;;5.05;1.00;;;;;;;15.67;86.02;98573.69;10423952;28;96818;-82
2024/01/17 04:00:48;;;;;;;7.32;1.38;;;;;;;15.64;86.68;98561.56;10429599;27;96589;-82
2024/01/17 04:05:51;;;;;;;4.35;1.08;;;;;;;15.75;84.42;98550.84;10443086;27;96624;-82
2024/01/17 04:10:55;;;;;;;5.05;0.90;;;;;;;15.73;85.62;98557.25;10455069;27;97155;-82
2024/01/17 04:16:01;;;;;;;8.13;1.20;;;;;;;15.69;85.31;98559.34;10465773;27;96600;-83
2024/01/17 04:21:05;;;;;;;5.10;1.38;;;;;;;15.64;86.10;98552.75;10464615;27;96686;-83
2024/01/17 04:26:08;;;;;;;3.47;1.00;;;;;;;15.54;86.98;98552.72;10464406;27;97636;-82
2024/01/17 04:31:23;;;;;;;6.43;1.45;;;;;;;15.52;86.50;98552.03;10465186;27;96624;-82
2024/01/17 04:36:29;;;;;;;4.90;1.10;;;;;;;15.62;85.02;98562.66;10464916;27;96777;-83
2024/01/17 04:41:32;;;;;;;4.45;1.08;;;;;;;15.62;84.73;98566.16;10464062;27;96729;-83
2024/01/17 04:46:37;;;;;;;4.85;0.93;;;;;;;15.64;83.08;98580.13;10464288;27;96775;-82
2024/01/17 04:51:43;;;;;;;6.32;1.48;;;;;;;15.62;80.92;98581.22;10464007;27;97186;-82
2024/01/17 04:56:48;;;;;;;11.07;1.88;;;;;;;15.60;80.37;98570.75;10442726;27;96837;-81
2024/01/17 05:01:55;;;;;;;2.40;0.82;;;;;;;15.58;79.43;98569.22;10422229;27;96554;-81
2024/01/17 05:06:59;;;;;;;9.05;1.33;;;;;;;15.52;79.49;98565.28;10422011;28;97086;-81
2024/01/17 05:12:03;;;;;;;;;;;;;;;15.54;78.73;98560.69;10422541;27;96751;-80
2024/01/17 05:17:10;;;;;;;7.22;0.88;;;;;;;15.59;78.27;98558.47;10422340;27;96889;-81
2024/01/17 05:22:15;;;;;;;5.00;1.08;;;;;;;15.54;79.18;98557.19;10421592;27;96661;-81
2024/01/17 05:27:20;;;;;;;4.60;1.10;;;;;;;15.54;79.76;98534.16;10420651;28;96979;-81
2024/01/17 05:32:27;;;;;;;7.00;1.10;;;;;;;15.49;79.16;98528.41;10421819;27;96668;-80
2024/01/17 05:37:32;;;;;;;4.43;1.52;;;;;;;15.50;78.53;98511.53;10421315;28;97374;-80
2024/01/17 05:42:36;;;;;;;3.70;1.10;;;;;;;15.52;78.78;98522.84;10421058;28;97193;-80
2024/01/17 05:47:41;;;;;;;5.07;1.30;;;;;;;15.53;78.57;98528.97;10440843;27;96685;-80
2024/01/17 05:52:48;;;;;;;11.25;1.45;;;;;;;15.49;78.96;98524.94;10420439;27;96724;-80
2024/01/17 05:57:53;;;;;;;7.00;1.20;;;;;;;15.50;79.26;98524.78;10420154;27;96865;-79
2024/01/17 06:02:58;;;;;;;6.35;1.00;;;;;;;15.51;78.86;98515.84;10425590;27;97210;-80
2024/01/17 06:08:01;;;;;;;7.78;1.42;;;;;;;15.52;79.05;98517.56;10454954;27;97174;-80
2024/01/17 06:13:05;;;;;;;8.90;1.27;;;;;;;15.47;79.52;98524.22;10419928;28;96767;-80
2024/01/17 06:18:12;;;;;;;7.47;1.07;;;;;;;15.48;78.63;98518.78;10419780;28;97358;-80
2024/01/17 06:23:15;;;;;;;5.40;0.82;;;;;;;15.45;79.02;98512.91;10420298;27;96617;-80
2024/01/17 06:28:19;;;;;;;6.13;0.82;;;;;;;15.43;78.62;98502.44;10418866;28;96652;-80
2024/01/17 06:33:23;;;;;;;7.75;1.02;;;;;;;15.48;78.66;98541.78;10419529;27;97193;-80
2024/01/17 06:38:27;;;;;;;3.47;0.95;;;;;;;15.30;80.79;98546.03;10419671;27;96853;-81
2024/01/17 06:43:30;;;;;;;4.13;0.70;;;;;;;14.94;83.17;98536.72;10437534;27;96737;-81
2024/01/17 06:48:35;;;;;;;5.00;1.00;;;;;;;14.76;85.14;98535.63;10461216;27;96859;-81
2024/01/17 06:53:45;;;;;;;5.60;0.82;;;;;;;14.78;85.24;98541.66;10456568;27;96837;-83
2024/01/17 06:58:48;;;;;;;2.17;0.70;;;;;;;14.74;85.84;98566.69;10418522;27;96847;-80
2024/01/17 07:03:53;;;;;;;2.42;0.75;;;;;;;14.65;86.73;98551.56;10418797;28;97264;-81
2024/01/17 07:08:58;;;;;;;;;;;;;;;14.67;86.99;98565.50;10418993;27;97150;-83
2024/01/17 07:14:01;;;;;;;3.57;0.90;;;;;;;14.60;87.85;98586.38;10454353;27;96802;-81
2024/01/17 07:19:06;;;;;;;2.80;0.60;;;;;;;14.48;88.37;98570.66;10468321;27;96765;-81
2024/01/17 07:24:10;;;;;;;;;;;;;;;14.36;86.95;98564.56;10468291;27;96942;-82
2024/01/17 07:29:14;;;;;;;5.25;1.20;;;;;;;14.40;87.29;98568.63;10465654;27;96862;-82
2024/01/17 07:34:19;;;;;;;8.35;0.90;;;;;;;14.51;87.82;98559.81;10467201;27;96652;-81
2024/01/17 07:39:23;;;;;;;4.40;0.60;;;;;;;14.51;87.19;98547.41;10467005;27;96796;-84
2024/01/17 07:44:29;;;;;;;5.80;0.80;;;;;;;14.55;86.90;98553.28;10464704;27;96693;-83
2024/01/17 07:49:37;;;;;;;8.50;0.85;;;;;;;14.59;87.15;98557.38;10424577;28;97663;-82
2024/01/17 07:54:40;;;;;;;6.10;1.25;;;;;;;14.61;87.12;98566.84;10449719;27;96711;-82
2024/01/17 07:59:44;;;;;;;6.22;1.17;;;;;;;14.68;87.39;98559.25;10428903;27;97319;-82
2024/01/17 08:04:52;;;;;;;5.68;1.00;;;;;;;14.84;86.91;98554.34;10425189;27;96568;-82
2024/01/17 08:09:56;;;;;;;4.60;1.55;;;;;;;14.85;86.21;98563.16;10424001;27;96819;-81
2024/01/17 08:15:04;;;;;;;4.93;0.90;;;;;;;14.98;85.28;98566.44;10424060;28;97061;-81
2024/01/17 08:20:12;;;;;;;6.33;2.00;;;;;;;15.04;84.90;98572.09;10439477;27;96914;-80
2024/01/17 08:25:16;;;;;;;4.90;1.52;;;;;;;14.92;86.21;98575.75;10465254;27;97086;-84
2024/01/17 08:30:19;;;;;;;3.17;0.60;;;;;;;14.89;85.16;98581.28;10465562;27;97252;-83
2024/01/17 08:35:25;;;;;;;4.82;0.85;;;;;;;15.01;83.13;98567.00;10464626;27;96734;-82
2024/01/17 08:40:29;;;;;;;2.10;0.80;;;;;;;15.13;81.62;98581.88;10465195;27;96536;-82
2024/01/17 08:45:36;;;;;;;1.83;0.70;;;;;;;15.16;81.59;98571.03;10465051;27;97106;-82
2024/01/17 08:50:41;;;;;;;4.40;0.90;;;;;;;15.16;82.52;98580.78;10433680;27;96609;-81
2024/01/17 08:55:45;;;;;;;3.63;0.77;;;;;;;14.95;83.40;98586.09;10451139;27;96540;-81
2024/01/17 09:00:48;;;;;;;5.70;0.73;;;;;;;14.82;85.83;98588.06;10464318;27;96579;-83
2024/01/17 09:05:53;;;;;;;4.10;0.80;;;;;;;14.79;87.78;98554.75;10463990;27;96711;-81
2024/01/17 09:10:57;;;;;;;4.35;1.15;;;;;;;15.08;86.65;98570.00;10432586;27;96655;-82
2024/01/17 09:16:00;;;;;;;7.10;1.10;;;;;;;15.23;86.58;98569.56;10422075;27;97053;-83
2024/01/17 09:21:05;;;;;;;4.47;0.98;;;;;;;15.40;85.48;98563.69;10421121;28;96737;-82
2024/01/17 09:26:12;;;;;;;4.70;1.45;;;;;;;15.36;84.92;98580.81;10421059;28;96984;-82
2024/01/17 09:31:16;;;;;;;5.97;1.30;;;;;;;15.26;85.98;98584.38;10463241;27;96681;-81
2024/01/17 09:36:22;;;;;;;4.88;0.90;;;;;;;15.08;86.45;98594.69;10462868;27;96616;-83
2024/01/17 09:41:25;;;;;;;3.67;1.02;;;;;;;14.84;85.89;98596.72;10462983;27;96935;-80
2024/01/17 09:46:34;;;;;;;2.60;0.82;;;;;;;14.91;86.08;98592.59;10434924;27;96929;-83
2024/01/17 09:51:40;;;;;;;2.65;0.45;;;;;;;15.04;85.46;98621.56;10420984;27;97135;-82
2024/01/17 09:56:47;;;;;;;6.97;0.77;;;;;;;15.13;83.39;98624.28;10420460;27;96950;-82
2024/01/17 10:01:50;;;;;;;4.47;0.80;;;;;;;15.28;83.23;98607.13;10433732;27;97206;-81
2024/01/17 10:06:56;;;;;;;6.80;1.58;;;;;;;15.43;81.92;98603.16;10462041;27;96668;-81
2024/01/17 10:12:00;;;;;;;6.03;1.10;;;;;;;15.42;82.39;98598.00;10421438;27;96800;-82
2024/01/17 10:17:05;;;;;;;3.70;1.10;;;;;;;15.67;82.75;98627.56;10420240;28;97447;-82
2024/01/17 10:22:11;;;;;;;7.78;1.10;;;;;;;15.49;84.95;98623.84;10461055;27;96688;-81
2024/01/17 10:27:15;;;;;;;2.08;0.63;;;;;;;15.38;84.87;98629.22;10460436;27;99571;-81
2024/01/17 10:32:18;;;;;;;2.03;0.65;;;;;;;15.33;85.11;98650.00;10461575;27;97207;-83
2024/01/17 10:37:24;;;;;;;2.13;1.00;;;;;;;15.44;85.13;98670.28;10435078;27;96828;-83
2024/01/17 10:42:30;;;;;;;2.78;0.90;;;;;;;15.46;85.00;98655.91;10418924;27;96602;-80
2024/01/17 10:47:34;;;;;;;4.88;0.82;;;;;;;15.50;84.21;98670.59;10421279;27;97157;-80
2024/01/17 10:52:42;;;;;;;4.72;0.90;;;;;;;15.43;85.41;98688.00;10437760;27;97173;-83
2024/01/17 10:57:52;;;;;;;5.70;1.00;;;;;;;15.49;83.55;98686.66;10466068;27;98170;-82
2024/01/17 11:02:58;;;;;;;3.38;0.93;;;;;;;15.65;83.14;98705.56;10467370;27;96549;-82
2024/01/17 11:08:06;;;;;;;4.78;1.02;;;;;;;15.88;80.89;98665.53;10458735;27;96900;-81
2024/01/17 11:13:11;;;;;;;3.55;0.85;;;;;;;16.05;80.18;98684.47;10424077;28;97200;-82
2024/01/17 11:18:17;;;;;;;8.77;1.10;;;;;;;15.97;80.85;98694.88;10423262;27;97271;-82
2024/01/17 11:23:31;;;;;;;4.38;1.25;;;;;;;16.11;80.07;98687.41;10423917;27;96810;-82
2024/01/17 11:28:42;;;;;;;8.00;1.50;;;;;;;16.11;79.97;98691.88;10422324;27;97360;-81
2024/01/17 11:33:47;;;;;;;4.25;1.08;;;;;;;16.15;79.86;98683.50;10435535;27;97099;-83
2024/01/17 11:38:54;;;;;;;3.72;0.70;;;;;;;16.13;79.90;98682.81;10465078;27;97315;-82
2024/01/17 11:43:59;;;;;;;5.65;1.08;;;;;;;16.13;80.27;98677.50;10424346;27;97126;-82
2024/01/17 11:49:07;;;;;;;3.20;1.10;;;;;;;16.30;81.11;98671.56;10392428;22;99341;-82
2024/01/17 11:54:16;;;;;;;3.67;1.15;;;;;;;16.34;79.75;98669.47;10381780;28;96878;-82
2024/01/17 11:59:20;;;;;;;3.00;0.82;;;;;;;16.45;78.33;98635.72;10380383;28;97294;-81
2024/01/17 12:04:25;;;;;;;5.93;1.02;;;;;;;16.69;77.64;98644.13;10380915;28;97297;-81
2024/01/17 12:09:29;;;;;;;8.43;1.27;;;;;;;16.63;77.88;98623.47;10379358;28;97243;-81
2024/01/17 12:14:35;;;;;;;5.20;1.25;;;;;;;16.53;78.27;98622.59;10380658;28;97079;-82
2024/01/17 12:19:39;;;;;;;4.15;1.42;;;;;;;16.72;77.84;98630.56;10380399;28;97499;-82
2024/01/17 12:24:44;;;;;;;3.63;1.20;;;;;;;16.69;78.17;98637.97;10380039;28;97338;-83
2024/01/17 12:29:54;;;;;;;5.78;0.90;;;;;;;16.53;78.03;98627.91;10380007;28;97286;-82
2024/01/17 12:34:58;;;;;;;;;;;;;;;16.66;78.53;98632.94;10379945;28;97071;-83
2024/01/17 12:40:05;;;;;;;3.47;0.88;;;;;;;16.80;77.23;98624.56;10379828;28;96760;-82
2024/01/17 12:45:10;;;;;;;10.82;1.58;;;;;;;16.52;78.46;98615.59;10379462;28;96749;-82
2024/01/17 12:50:14;;;;;;;3.75;0.93;;;;;;;16.23;80.39;98645.69;10379087;28;96725;-82
2024/01/17 12:55:22;;;;;;;5.15;1.08;;;;;;;15.85;82.75;98631.31;10337901;28;96781;-80
2024/01/17 13:00:27;;;;;;;3.88;0.52;;;;;;;15.67;84.34;98647.94;10336722;28;96778;-81
2024/01/17 13:05:30;;;;;;;;;;;;;;;15.41;87.82;98642.22;10338225;28;96819;-81
2024/01/17 13:10:36;;;;;;;5.72;1.10;;;;;;;15.27;90.95;98645.19;10364511;28;96672;-80
2024/01/17 13:15:40;;;;;;;4.93;1.30;;;;;;;15.32;90.68;98648.28;10378135;28;96968;-82
2024/01/17 13:20:44;;;;;;;6.07;1.07;;;;;;;15.60;89.38;98638.84;10378588;28;97512;-82
2024/01/17 13:25:49;;;;;;;5.20;1.23;;;;;;;15.60;88.09;98655.59;10377693;28;96916;-81
2024/01/17 13:30:52;;;;;;;6.75;1.58;;;;;;;15.54;87.66;98669.38;10377833;28;96601;-82
2024/01/17 13:35:56;;;;;;;7.30;1.40;;;;;;;15.52;86.69;98650.13;10371211;28;96644;-80
2024/01/17 13:41:01;;;;;;;4.03;0.93;;;;;;;15.59;86.67;98656.56;10339405;28;96850;-82
2024/01/17 13:46:05;;;;;;;5.65;1.10;;;;;;;15.66;84.72;98670.13;10376479;28;96711;-82
2024/01/17 13:51:10;;;;;;;4.18;0.98;;;;;;;15.75;84.30;98645.50;10376730;28;96790;-81
2024/01/17 13:56:15;;;;;;;7.75;1.30;;;;;;;16.02;82.80;98663.47;10375202;28;96773;-81
2024/01/17 14:01:18;;;;;;;;;;;;;;;15.85;82.76;98660.50;10377055;28;96763;-81
2024/01/17 14:06:23;;;;;;;5.18;1.05;;;;;;;15.82;82.53;98655.41;10376672;28;97331;-81
2024/01/17 14:11:29;;;;;;;4.10;1.27;;;;;;;16.16;81.78;98671.06;10376895;28;96965;-81
2024/01/17 14:16:32;;;;;;;5.68;0.82;;;;;;;16.11;80.74;98649.41;10376553;28;97216;-80
2024/01/17 14:21:36;;;;;;;7.93;1.52;;;;;;;16.07;80.19;98672.72;10376232;28;97380;-79
2024/01/17 14:26:41;;;;;;;5.33;1.77;;;;;;;15.99;79.54;98631.91;10376850;28;96779;-79
2024/01/17 14:31:45;;;;;;;7.97;1.20;;;;;;;16.00;79.90;98639.72;10375700;28;96821;-79
2024/01/17 14:36:49;;;;;;;3.90;1.13;;;;;;;16.08;79.59;98662.94;10375617;28;97009;-79
2024/01/17 14:41:55;;;;;;;4.72;0.88;;;;;;;16.21;78.83;98671.50;10374602;28;96604;-79
2024/01/17 14:46:59;;;;;;;4.60;1.27;;;;;;;16.18;78.67;98672.63;10357266;28;98660;-79
2024/01/17 14:52:02;;;;;;;6.28;1.15;;;;;;;16.21;78.92;98695.41;10334408;28;96727;-79
2024/01/17 14:57:07;;;;;;;5.23;1.53;;;;;;;16.07;78.92;98707.22;10334323;28;97236;-79
2024/01/17 15:02:11;;;;;;;9.50;2.42;;;;;;;16.05;79.26;98698.53;10334395;28;96636;-80
2024/01/17 15:07:14;;;;;;;5.35;1.27;;;;;;;15.89;79.35;98691.06;10333017;28;97050;-80
2024/01/17 15:12:20;;;;;;;5.38;1.17;;;;;;;15.79;80.15;98702.59;10333961;28;97108;-80
2024/01/17 15:17:23;;;;;;;11.32;1.77;;;;;;;15.58;82.73;98699.13;10334324;28;96672;-82
2024/01/17 15:22:29;;;;;;;6.60;2.05;;;;;;;15.49;83.31;98740.47;10333853;28;97317;-81
2024/01/17 15:27:35;;;;;;;8.25;1.88;;;;;;;15.21;86.79;98745.53;10333609;28;97024;-81
2024/01/17 15:32:39;;;;;;;4.95;1.05;;;;;;;14.92;88.47;98763.81;10332839;28;96956;-81
2024/01/17 15:37:42;;;;;;;4.23;0.90;;;;;;;14.86;88.58;98771.38;10340653;28;97383;-81
2024/01/17 15:42:47;;;;;;;5.50;1.45;;;;;;;14.67;90.53;98782.63;10340086;28;98208;-83
2024/01/17 15:47:50;;;;;;;;;;;;;;;14.70;89.27;98777.91;10365056;28;96863;-80
2024/01/17 15:52:54;;;;;;;8.07;1.17;;;;;;;14.73;89.34;98790.09;10381240;28;96935;-81
2024/01/17 15:57:59;;;;;;;7.97;1.50;;;;;;;14.84;88.44;98779.47;10380971;28;96730;-80
2024/01/17 16:03:02;;;;;;;;;;;;;;;14.86;87.78;98777.53;10381181;28;97172;-81
2024/01/17 16:08:06;;;;;;;10.02;2.15;;;;;;;15.03;86.54;98800.84;10381584;28;97046;-81
2024/01/17 16:13:12;;;;;;;8.68;2.10;;;;;;;15.06;87.15;98815.66;10380297;28;96802;-80
2024/01/17 16:18:15;;;;;;;9.82;2.38;;;;;;;15.14;86.04;98819.38;10380102;28;96837;-81
2024/01/17 16:23:19;;;;;;;8.65;2.35;;;;;;;15.14;84.79;98802.63;10379161;28;97045;-80
2024/01/17 16:28:24;;;;;;;11.30;1.98;;;;;;;15.14;85.08;98829.13;10379625;28;97141;-80
2024/01/17 16:33:29;;;;;;;12.57;1.40;;;;;;;15.04;85.73;98826.41;10380137;28;96810;-81
2024/01/17 16:38:33;;;;;;;10.73;1.70;;;;;;;15.13;84.58;98832.75;10379122;28;96810;-81
2024/01/17 16:43:39;;;;;;;6.05;1.52;;;;;;;14.89;86.84;98877.09;10379805;28;96848;-81
2024/01/17 16:48:43;;;;;;;;;;;;;;;14.71;87.06;98847.59;10378789;28;96860;-82
2024/01/17 16:53:46;;;;;;;6.47;1.45;;;;;;;14.65;89.27;98917.78;10378558;28;97396;-80
2024/01/17 16:58:51;;;;;;;10.05;2.42;;;;;;;14.76;88.65;98899.25;10380323;28;96988;-80
2024/01/17 17:03:55;;;;;;;8.05;1.65;;;;;;;14.82;88.14;98901.41;10378651;28;96600;-80
2024/01/17 17:08:58;;;;;;;6.00;1.42;;;;;;;14.89;87.33;98898.28;10377930;28;96771;-81
2024/01/17 17:14:04;;;;;;;7.78;1.83;;;;;;;14.83;86.75;98918.97;10377130;28;97218;-80
2024/01/17 17:19:07;;;;;;;8.93;2.45;;;;;;;14.72;87.29;98911.03;10378280;28;97384;-79
2024/01/17 17:24:11;;;;;;;5.05;1.60;;;;;;;14.76;86.46;98946.91;10378071;28;96991;-80
2024/01/17 17:29:16;;;;;;;9.85;2.50;;;;;;;14.77;86.43;98951.25;10377146;28;96735;-81
2024/01/17 17:34:20;;;;;;;11.20;2.45;;;;;;;14.82;85.19;98966.75;10377553;28;96668;-81
2024/01/17 17:39:24;;;;;;;14.95;1.67;;;;;;;14.77;85.82;98982.16;10376978;28;96777;-80
2024/01/17 17:44:31;;;;;;;8.18;1.80;;;;;;;14.64;86.17;98982.25;10377226;28;97322;-80
2024/01/17 17:49:34;;;;;;;10.07;2.28;;;;;;;14.66;85.15;98985.63;10377691;28;96719;-81
2024/01/17 17:54:38;;;;;;;7.57;2.20;;;;;;;14.69;84.21;98980.13;10377161;28;96671;-81
2024/01/17 17:59:44;;;;;;;11.65;1.90;;;;;;;14.74;84.17;99000.94;10376391;28;97211;-80
2024/01/17 18:04:48;;;;;;;11.20;2.05;;;;;;;14.63;86.24;99022.09;10375722;28;97293;-79
2024/01/17 18:09:52;;;;;;;13.68;1.83;;;;;;;14.64;85.58;99035.19;10376424;28;96982;-79
2024/01/17 18:14:57;;;;;;;6.53;1.75;;;;;;;14.55;86.29;99032.41;10375604;28;96839;-79
2024/01/17 18:20:00;;;;;;;8.52;1.98;;;;;;;14.61;85.10;99029.28;10376426;28;96779;-80
2024/01/17 18:25:05;;;;;;;19.02;2.95;;;;;;;14.54;85.36;99028.91;10376508;28;96942;-81
2024/01/17 18:30:11;;;;;;;11.93;2.47;;;;;;;14.55;84.51;99027.13;10376528;28;97606;-81
2024/01/17 18:35:15;;;;;;;6.32;1.90;;;;;;;14.59;83.52;99015.34;10375370;28;96678;-81
2024/01/17 18:40:19;;;;;;;10.35;2.17;;;;;;;14.62;83.35;99012.47;10376909;28;97338;-80
2024/01/17 18:45:24;;;;;;;10.48;2.28;;;;;;;14.67;83.07;99036.78;10375029;28;97143;-80
2024/01/17 18:50:28;;;;;;;9.95;2.00;;;;;;;14.69;82.83;99030.44;10375607;28;97169;-82
2024/01/17 18:55:32;;;;;;;12.55;2.10;;;;;;;14.73;82.74;99068.13;10374727;28;97025;-81
2024/01/17 19:00:37;;;;;;;9.80;2.10;;;;;;;14.77;82.55;99069.56;10375711;28;97115;-80
2024/01/17 19:05:42;;;;;;;6.07;1.77;;;;;;;14.74;83.04;99090.97;10375019;28;97637;-81
2024/01/17 19:10:46;;;;;;;12.37;2.13;;;;;;;14.75;82.89;99093.50;10380017;28;96907;-81
2024/01/17 19:15:51;;;;;;;10.07;2.13;;;;;;;14.74;82.50;99098.94;10382151;28;97022;-81
2024/01/17 19:20:56;;;;;;;6.85;2.28;;;;;;;14.75;81.74;99085.56;10382650;28;96675;-81
2024/01/17 19:26:00;;;;;;;10.32;2.03;;;;;;;14.83;80.69;99075.22;10381824;28;96853;-80
2024/01/17 19:31:05;;;;;;;11.37;2.20;;;;;;;14.83;80.90;99103.53;10382767;28;96689;-80
2024/01/17 19:36:09;;;;;;;7.03;2.03;;;;;;;14.88;79.97;99100.53;10381367;28;97545;-80
2024/01/17 19:41:13;;;;;;;10.25;2.30;;;;;;;14.82;81.51;99123.03;10381485;28;96817;-81
2024/01/17 19:46:19;;;;;;;10.10;2.03;;;;;;;14.66;82.72;99109.25;10379884;28;97284;-82
2024/01/17 19:51:22;;;;;;;9.32;2.42;;;;;;;14.64;82.46;99119.94;10381209;28;97224;-81
2024/01/17 19:56:27;;;;;;;9.13;2.20;;;;;;;14.71;81.84;99105.28;10368441;28;96747;-81
2024/01/17 20:01:33;;;;;;;9.73;2.30;;;;;;;14.77;80.87;99117.22;10380827;28;96632;-81
2024/01/17 20:06:37;;;;;;;8.77;1.50;;;;;;;14.90;79.28;99119.81;10380337;28;96744;-81
2024/01/17 20:11:42;;;;;;;10.38;1.73;;;;;;;14.85;79.78;99119.31;10380350;28;97089;-81
2024/01/17 20:16:47;;;;;;;9.38;1.88;;;;;;;14.86;79.78;99127.13;10379964;28;96704;-81
2024/01/17 20:21:50;;;;;;;;;;;;;;;14.73;81.10;99124.56;10380471;28;96767;-79
2024/01/17 20:26:54;;;;;;;5.40;1.75;;;;;;;14.69;81.68;99123.13;10380255;28;96689;-79
2024/01/17 20:31:59;;;;;;;10.88;2.40;;;;;;;14.73;81.73;99155.50;10379671;28;96926;-80
2024/01/17 20:37:03;;;;;;;9.02;1.88;;;;;;;14.51;82.91;99153.56;10378475;28;96915;-80
2024/01/17 20:42:06;;;;;;;8.10;1.83;;;;;;;14.39;84.04;99127.16;10379953;28;97360;-81
2024/01/17 20:47:12;;;;;;;6.03;1.48;;;;;;;14.30;86.33;99151.63;10378350;28;96973;-80
2024/01/17 20:52:15;;;;;;;11.18;2.80;;;;;;;14.36;85.59;99177.66;10379550;28;96901;-80
2024/01/17 20:57:19;;;;;;;9.98;1.75;;;;;;;14.45;84.65;99177.00;10379495;28;96954;-81
2024/01/17 21:02:24;;;;;;;8.07;1.77;;;;;;;14.46;84.78;99168.94;10378810;28;97080;-80
2024/01/17 21:07:27;;;;;;;;;;;;;;;14.48;83.90;99196.16;10378955;28;97451;-80
2024/01/17 21:12:30;;;;;;;11.88;1.60;;;;;;;14.49;83.97;99184.59;10379470;28;96727;-80
2024/01/17 21:17:35;;;;;;;9.65;1.67;;;;;;;14.54;83.09;99206.28;10378209;28;96925;-80
2024/01/17 21:22:42;;;;;;;9.50;2.33;;;;;;;14.58;83.04;99221.00;10378164;28;96710;-80
2024/01/17 21:27:49;;;;;;;9.85;3.33;;;;;;;14.60;82.81;99245.56;10376912;28;96935;-80
2024/01/17 21:32:54;;;;;;;11.90;2.67;;;;;;;14.61;83.08;99249.91;10376483;28;96800;-80
2024/01/17 21:37:58;;;;;;;10.02;2.15;;;;;;;14.57;83.29;99252.88;10377544;28;96898;-80
2024/01/17 21:43:01;;;;;;;7.97;2.72;;;;;;;14.61;82.51;99271.09;10377032;28;96683;-80
2024/01/17 21:48:08;;;;;;;11.98;2.20;;;;;;;14.63;82.16;99277.13;10377069;28;97217;-80
2024/01/17 21:53:11;;;;;;;6.15;2.00;;;;;;;14.60;82.19;99277.34;10377032;28;96631;-80
2024/01/17 21:58:15;;;;;;;10.60;1.65;;;;;;;14.62;81.80;99274.59;10376894;28;96737;-79
2024/01/17 22:03:20;;;;;;;11.63;2.42;;;;;;;14.54;81.23;99261.88;10377780;28;96666;-79
2024/01/17 22:08:24;;;;;;;;;;;;;;;14.55;80.59;99278.63;10376848;28;96800;-79
2024/01/17 22:13:28;;;;;;;6.25;0.90;;;;;;;14.49;79.76;99282.53;10376341;28;97066;-79
2024/01/17 22:18:33;;;;;;;5.87;1.73;;;;;;;14.58;78.91;99296.94;10375622;28;97277;-79
2024/01/17 22:23:36;;;;;;;4.82;1.60;;;;;;;14.61;78.51;99286.97;10376313;28;96676;-79
2024/01/17 22:28:40;;;;;;;6.90;1.42;;;;;;;14.49;79.35;99277.25;10375936;28;96934;-79
2024/01/17 22:33:45;;;;;;;6.55;1.58;;;;;;;14.49;79.09;99301.06;10376142;28;96736;-79
2024/01/17 22:38:49;;;;;;;11.23;1.58;;;;;;;14.32;81.45;99322.59;10376067;28;96566;-81
2024/01/17 22:43:52;;;;;;;9.40;1.87;;;;;;;14.07;84.46;99314.66;10379641;28;97393;-80
2024/01/17 22:48:57;;;;;;;8.60;1.63;;;;;;;14.12;84.67;99323.13;10382670;28;97170;-79
2024/01/17 22:54:00;;;;;;;;;;;;;;;13.95;86.12;99327.84;10369817;28;96755;-81
2024/01/17 22:59:04;;;;;;;7.72;1.73;;;;;;;13.98;85.77;99311.75;10341669;28;96798;-80
2024/01/17 23:04:09;;;;;;;7.72;1.70;;;;;;;14.06;84.91;99309.44;10357730;28;97082;-81
2024/01/17 23:09:15;;;;;;;8.05;2.05;;;;;;;14.07;84.90;99319.97;10381459;28;97473;-81
2024/01/17 23:14:20;;;;;;;11.73;2.95;;;;;;;14.11;84.96;99328.50;10382150;28;96755;-81
2024/01/17 23:19:25;;;;;;;8.70;1.98;;;;;;;14.04;86.16;99322.78;10382044;28;96736;-79
2024/01/17 23:24:31;;;;;;;9.75;2.13;;;;;;;13.88;87.30;99345.06;10381974;28;97213;-81
2024/01/17 23:29:34;;;;;;;12.07;2.25;;;;;;;13.88;86.95;99343.28;10381830;28;96642;-81
2024/01/17 23:34:39;;;;;;;7.20;1.67;;;;;;;13.88;86.95;99330.06;10381764;28;97272;-81
2024/01/17 23:39:43;;;;;;;7.20;1.27;;;;;;;13.88;86.73;99339.78;10381216;28;96883;-81
2024/01/17 23:44:47;;;;;;;11.13;2.30;;;;;;;13.96;85.66;99348.91;10382080;28;96612;-81